createdAt,value
2019-05-23T00:02:45.893Z,6.03
2019-05-23T00:05:37.093Z,5.20
2019-05-23T00:08:24.642Z,5.83
2019-05-23T00:11:22.830Z,6.17
2019-05-23T00:14:00.718Z,5.23
2019-05-23T00:16:31.014Z,5.73
2019-05-23T00:19:01.608Z,5.27
2019-05-23T00:21:32.971Z,5.73
2019-05-23T00:24:02.832Z,6.13
2019-05-23T00:26:34.841Z,5.60
2019-05-23T00:29:10.319Z,5.87
2019-05-23T00:31:47.871Z,5.53
2019-05-23T00:34:20.284Z,6.07
2019-05-23T00:36:51.239Z,5.83
2019-05-23T00:39:21.291Z,5.53
2019-05-23T00:41:53.164Z,5.47
2019-05-23T00:44:23.427Z,5.27
2019-05-23T00:46:53.859Z,5.33
2019-05-23T00:49:24.703Z,6.20
2019-05-23T00:51:55.159Z,5.00
2019-05-23T00:54:25.928Z,6.10
2019-05-23T00:56:57.299Z,4.60
2019-05-23T00:59:28.026Z,5.40
2019-05-23T01:01:58.313Z,5.40
2019-05-23T01:04:28.062Z,5.30
2019-05-23T01:06:57.816Z,5.30
2019-05-23T01:09:27.424Z,5.43
2019-05-23T01:11:57.747Z,5.60
2019-05-23T01:14:28.639Z,5.50
2019-05-23T01:16:58.999Z,5.40
2019-05-23T01:19:28.680Z,5.03
2019-05-23T01:22:10.345Z,5.23
2019-05-23T01:24:45.956Z,5.27
2019-05-23T01:27:15.577Z,4.90
2019-05-23T01:29:50.010Z,5.13
2019-05-23T01:32:28.111Z,5.57
2019-05-23T01:34:58.879Z,5.57
2019-05-23T01:37:28.651Z,5.43
2019-05-23T01:39:58.746Z,5.67
2019-05-23T01:42:29.265Z,5.50
2019-05-23T01:45:02.353Z,5.50
2019-05-23T01:47:32.420Z,5.00
2019-05-23T01:50:02.552Z,5.23
2019-05-23T01:52:33.334Z,5.73
2019-05-23T01:55:02.862Z,5.20
2019-05-23T01:57:32.965Z,4.87
2019-05-23T02:00:09.680Z,4.77
2019-05-23T02:02:35.142Z,5.13
2019-05-23T02:05:06.381Z,5.23
2019-05-23T02:07:37.572Z,5.27
2019-05-23T02:10:08.631Z,6.10
2019-05-23T02:12:39.113Z,6.27
2019-05-23T02:15:10.719Z,6.00
2019-05-23T02:17:41.816Z,6.03
2019-05-23T02:20:14.030Z,5.90
2019-05-23T02:22:44.085Z,6.60
2019-05-23T02:25:16.880Z,6.40
2019-05-23T02:27:48.431Z,6.70
2019-05-23T02:30:33.898Z,5.97
2019-05-23T02:32:52.900Z,6.77
2019-05-23T02:35:22.784Z,6.13
2019-05-23T02:38:16.733Z,6.27
2019-05-23T02:41:02.242Z,5.40
2019-05-23T02:43:33.668Z,5.63
2019-05-23T02:46:07.830Z,6.37
2019-05-23T02:48:42.907Z,6.03
2019-05-23T02:51:22.066Z,5.90
2019-05-23T02:53:54.683Z,5.70
2019-05-23T02:56:25.392Z,6.03
2019-05-23T02:59:15.600Z,6.83
2019-05-23T03:02:15.014Z,6.50
2019-05-23T03:04:47.595Z,6.33
2019-05-23T03:07:20.681Z,6.50
2019-05-23T03:09:51.801Z,6.03
2019-05-23T03:12:25.004Z,6.70
2019-05-23T03:14:53.816Z,6.37
2019-05-23T03:17:27.068Z,6.67
2019-05-23T03:20:02.988Z,6.73
2019-05-23T03:22:40.011Z,6.90
2019-05-23T03:25:51.029Z,6.83
2019-05-23T03:28:21.937Z,7.40
2019-05-23T03:31:21.805Z,7.10
2019-05-23T03:33:25.593Z,7.20
2019-05-23T03:35:56.861Z,7.23
2019-05-23T03:38:27.875Z,7.70
2019-05-23T03:40:58.071Z,6.87
2019-05-23T03:43:30.288Z,7.47
2019-05-23T03:46:05.076Z,6.80
2019-05-23T03:48:36.152Z,8.50
2019-05-23T03:51:09.580Z,7.83
2019-05-23T03:53:41.491Z,7.87
2019-05-23T03:56:11.575Z,7.40
2019-05-23T03:58:41.761Z,8.00
2019-05-23T04:01:13.033Z,7.23
2019-05-23T04:03:44.881Z,6.50
2019-05-23T04:06:14.474Z,6.40
2019-05-23T04:08:44.457Z,7.00
2019-05-23T04:11:14.256Z,6.27
2019-05-23T04:13:44.301Z,6.43
2019-05-23T04:16:14.461Z,5.90
2019-05-23T04:18:44.232Z,6.47
2019-05-23T04:21:14.098Z,6.10
2019-05-23T04:23:43.661Z,5.87
2019-05-23T04:26:14.233Z,7.77
2019-05-23T04:28:44.433Z,6.60
2019-05-23T04:31:13.861Z,7.93
2019-05-23T04:33:43.432Z,7.27
2019-05-23T04:36:12.887Z,7.60
2019-05-23T04:38:42.371Z,6.87
2019-05-23T04:41:12.160Z,7.33
2019-05-23T04:43:41.974Z,7.67
2019-05-23T04:46:13.382Z,7.20
2019-05-23T04:48:43.633Z,6.30
2019-05-23T04:51:13.423Z,7.20
2019-05-23T04:53:43.052Z,6.83
2019-05-23T04:56:13.422Z,6.87
2019-05-23T04:58:44.541Z,6.67
2019-05-23T05:01:14.657Z,7.23
2019-05-23T05:03:46.184Z,9.60
2019-05-23T05:06:15.980Z,10.13
2019-05-23T05:08:45.560Z,11.10
2019-05-23T05:11:14.999Z,11.90
2019-05-23T05:13:44.664Z,9.67
2019-05-23T05:16:15.122Z,9.53
2019-05-23T05:18:44.751Z,7.37
2019-05-23T05:21:15.217Z,7.47
2019-05-23T05:23:44.914Z,6.47
2019-05-23T05:26:22.033Z,7.07
2019-05-23T05:28:52.432Z,6.60
2019-05-23T05:31:23.172Z,6.97
2019-05-23T05:33:52.585Z,7.30
2019-05-23T05:36:22.293Z,6.00
2019-05-23T05:38:51.920Z,5.93
2019-05-23T05:41:21.887Z,6.53
2019-05-23T05:43:51.690Z,6.73
2019-05-23T05:46:21.731Z,6.37
2019-05-23T05:48:51.282Z,6.93
2019-05-23T05:51:20.795Z,6.80
2019-05-23T05:53:50.308Z,6.17
2019-05-23T05:56:20.021Z,6.93
2019-05-23T05:58:49.778Z,5.70
2019-05-23T06:01:33.381Z,5.90
2019-05-23T06:03:51.565Z,5.97
2019-05-23T06:06:31.877Z,5.87
2019-05-23T06:09:03.877Z,5.37
2019-05-23T06:11:33.455Z,5.50
2019-05-23T06:14:03.302Z,6.50
2019-05-23T06:16:33.905Z,7.10
2019-05-23T06:19:05.280Z,6.47
2019-05-23T06:21:34.887Z,6.27
2019-05-23T06:24:04.762Z,6.13
2019-05-23T06:26:34.387Z,6.97
2019-05-23T06:29:05.206Z,7.27
2019-05-23T06:31:35.757Z,6.30
2019-05-23T06:34:05.553Z,7.20
2019-05-23T06:36:35.854Z,7.40
2019-05-23T06:39:07.634Z,7.87
2019-05-23T06:41:37.431Z,8.00
2019-05-23T06:44:08.236Z,8.90
2019-05-23T06:46:38.041Z,9.00
2019-05-23T06:49:07.575Z,9.90
2019-05-23T06:51:37.497Z,10.10
2019-05-23T06:54:07.547Z,9.57
2019-05-23T06:56:37.151Z,9.40
2019-05-23T06:59:06.793Z,9.03
2019-05-23T07:01:36.151Z,9.30
2019-05-23T07:04:06.882Z,10.23
2019-05-23T07:06:36.479Z,10.30
2019-05-23T07:09:12.190Z,10.90
2019-05-23T07:11:41.673Z,10.23
2019-05-23T07:14:11.971Z,10.40
2019-05-23T07:16:41.436Z,10.00
2019-05-23T07:19:12.386Z,10.10
2019-05-23T07:21:42.265Z,9.77
2019-05-23T07:24:12.288Z,10.60
2019-05-23T07:26:41.987Z,10.13
2019-05-23T07:29:13.108Z,10.87
2019-05-23T07:31:42.763Z,11.60
2019-05-23T07:34:12.290Z,11.40
2019-05-23T07:36:42.207Z,11.60
2019-05-23T07:39:12.055Z,11.10
2019-05-23T07:41:42.208Z,10.63
2019-05-23T07:44:12.289Z,9.33
2019-05-23T07:46:42.235Z,8.37
2019-05-23T07:49:11.761Z,8.17
2019-05-23T07:51:41.207Z,8.27
2019-05-23T07:54:28.160Z,8.53
2019-05-23T07:56:58.183Z,7.60
2019-05-23T07:59:28.120Z,7.97
2019-05-23T08:02:09.770Z,8.10
2019-05-23T08:04:39.348Z,8.17
2019-05-23T08:07:10.907Z,7.93
2019-05-23T08:09:41.228Z,8.80
2019-05-23T08:12:10.875Z,7.70
2019-05-23T08:14:40.456Z,7.63
2019-05-23T08:17:10.183Z,7.80
2019-05-23T08:19:49.034Z,8.20
2019-05-23T08:22:10.922Z,7.63
2019-05-23T08:24:40.534Z,8.20
2019-05-23T08:27:10.269Z,8.40
2019-05-23T08:29:40.101Z,8.10
2019-05-23T08:32:09.908Z,7.93
2019-05-23T08:34:42.254Z,7.60
2019-05-23T08:37:14.141Z,6.70
2019-05-23T08:39:44.455Z,7.00
2019-05-23T08:42:14.395Z,6.43
2019-05-23T08:44:44.457Z,5.57
2019-05-23T08:47:14.168Z,5.53
2019-05-23T08:49:43.661Z,5.13
2019-05-23T08:52:13.118Z,6.30
2019-05-23T08:54:43.799Z,5.90
2019-05-23T08:57:15.281Z,5.40
2019-05-23T08:59:44.901Z,5.10
2019-05-23T09:02:14.470Z,5.17
2019-05-23T09:05:02.219Z,5.20
2019-05-23T09:07:16.227Z,4.70
2019-05-23T09:09:46.886Z,6.30
2019-05-23T09:12:16.985Z,6.20
2019-05-23T09:14:48.569Z,6.20
2019-05-23T09:17:18.089Z,5.23
2019-05-23T09:19:47.944Z,5.00
2019-05-23T09:22:17.990Z,5.70
2019-05-23T09:24:47.468Z,6.27
2019-05-23T09:27:17.075Z,6.10
2019-05-23T09:29:46.643Z,4.77
2019-05-23T09:32:16.621Z,4.53
2019-05-23T09:34:46.293Z,4.47
2019-05-23T09:37:16.491Z,4.07
2019-05-23T09:39:47.996Z,4.03
2019-05-23T09:42:18.424Z,4.17
2019-05-23T09:44:48.328Z,4.63
2019-05-23T09:47:18.159Z,5.10
2019-05-23T09:49:53.901Z,4.60
2019-05-23T09:52:20.460Z,4.80
2019-05-23T09:54:49.858Z,4.73
2019-05-23T09:57:19.945Z,4.13
2019-05-23T09:59:49.561Z,5.00
2019-05-23T10:02:19.734Z,4.63
2019-05-23T10:04:49.249Z,5.33
2019-05-23T10:07:19.501Z,5.30
2019-05-23T10:09:48.949Z,5.07
2019-05-23T10:12:22.174Z,5.13
2019-05-23T10:14:51.929Z,5.07
2019-05-23T10:17:22.118Z,5.33
2019-05-23T10:19:52.103Z,5.33
2019-05-23T10:22:23.473Z,5.13
2019-05-23T10:24:53.233Z,5.40
2019-05-23T10:27:22.881Z,5.03
2019-05-23T10:29:52.452Z,5.40
2019-05-23T10:32:22.440Z,4.87
2019-05-23T10:34:51.935Z,4.93
2019-05-23T10:37:23.415Z,3.93
2019-05-23T10:39:55.863Z,4.27
2019-05-23T10:42:28.074Z,4.30
2019-05-23T10:44:57.807Z,4.53
2019-05-23T10:47:27.471Z,4.50
2019-05-23T10:49:57.042Z,4.50
2019-05-23T10:52:26.734Z,4.57
2019-05-23T10:54:56.482Z,4.00
2019-05-23T10:57:26.079Z,4.80
2019-05-23T10:59:55.926Z,4.50
2019-05-23T11:02:27.141Z,3.97
2019-05-23T11:04:58.591Z,3.70
2019-05-23T11:07:28.604Z,4.57
2019-05-23T11:09:58.619Z,4.00
2019-05-23T11:12:28.316Z,4.10
2019-05-23T11:14:57.875Z,4.13
2019-05-23T11:17:27.417Z,4.13
2019-05-23T11:19:56.884Z,4.10
2019-05-23T11:22:26.888Z,3.60
2019-05-23T11:24:56.570Z,4.10
2019-05-23T11:27:26.797Z,4.33
2019-05-23T11:29:56.495Z,3.30
2019-05-23T11:32:26.462Z,3.40
2019-05-23T11:34:55.976Z,3.07
2019-05-23T11:37:26.327Z,3.47
2019-05-23T11:39:55.990Z,3.97
2019-05-23T11:42:25.628Z,3.70
2019-05-23T11:44:55.179Z,3.40
2019-05-23T11:47:24.962Z,4.03
2019-05-23T11:49:57.032Z,3.60
2019-05-23T11:52:27.647Z,3.57
2019-05-23T11:54:57.420Z,3.97
2019-05-23T11:57:29.602Z,3.60
2019-05-23T11:59:59.308Z,3.83
2019-05-23T12:02:36.167Z,3.97
2019-05-23T12:05:08.939Z,3.93
2019-05-23T12:07:38.778Z,3.77
2019-05-23T12:10:09.180Z,4.40
2019-05-23T12:12:38.706Z,4.67
2019-05-23T12:15:13.364Z,4.90
2019-05-23T12:17:43.455Z,4.10
2019-05-23T12:20:13.890Z,3.90
2019-05-23T12:22:44.962Z,4.00
2019-05-23T12:25:22.472Z,3.67
2019-05-23T12:27:48.118Z,3.43
2019-05-23T12:30:18.884Z,4.53
2019-05-23T12:32:48.663Z,4.50
2019-05-23T12:35:18.349Z,3.60
2019-05-23T12:37:47.966Z,4.40
2019-05-23T12:40:18.905Z,4.27
2019-05-23T12:42:48.650Z,3.90
2019-05-23T12:45:18.889Z,3.70
2019-05-23T12:48:02.425Z,3.60
2019-05-23T12:50:37.974Z,3.67
2019-05-23T12:53:09.508Z,3.47
2019-05-23T12:55:39.024Z,3.50
2019-05-23T12:58:08.797Z,4.13
2019-05-23T13:00:51.620Z,3.87
2019-05-23T13:03:23.833Z,3.67
2019-05-23T13:05:53.843Z,3.70
2019-05-23T13:08:24.263Z,3.50
2019-05-23T13:10:54.448Z,4.00
2019-05-23T13:13:24.439Z,4.07
2019-05-23T13:15:54.830Z,3.70
2019-05-23T13:18:25.045Z,3.77
2019-05-23T13:20:59.329Z,3.70
2019-05-23T13:23:28.428Z,3.57
2019-05-23T13:25:58.856Z,4.03
2019-05-23T13:28:28.657Z,3.87
2019-05-23T13:30:58.244Z,3.93
2019-05-23T13:33:27.821Z,3.20
2019-05-23T13:35:57.857Z,3.30
2019-05-23T13:38:27.973Z,2.87
2019-05-23T13:40:57.921Z,3.50
2019-05-23T13:43:28.174Z,3.20
2019-05-23T13:45:58.453Z,3.63
2019-05-23T13:48:28.574Z,2.70
2019-05-23T13:50:58.758Z,3.40
2019-05-23T13:53:29.157Z,2.83
2019-05-23T13:55:59.121Z,3.93
2019-05-23T13:58:29.934Z,3.77
2019-05-23T14:01:00.247Z,2.90
2019-05-23T14:03:30.290Z,3.40
2019-05-23T14:06:00.651Z,4.10
2019-05-23T14:08:30.607Z,3.40
2019-05-23T14:11:03.263Z,3.43
2019-05-23T14:13:34.219Z,2.90
2019-05-23T14:16:05.408Z,2.70
2019-05-23T14:18:36.180Z,2.80
2019-05-23T14:21:05.906Z,2.70
2019-05-23T14:23:35.702Z,2.70
2019-05-23T14:26:05.861Z,3.00
2019-05-23T14:28:35.779Z,3.05
2019-05-23T14:31:24.287Z,2.58
2019-05-23T14:33:56.954Z,2.90
2019-05-23T14:36:57.651Z,2.42
2019-05-23T14:39:55.361Z,2.60
2019-05-23T14:42:48.505Z,2.60
2019-05-23T14:45:44.021Z,2.20
2019-05-23T14:48:21.511Z,2.37
2019-05-23T14:51:01.213Z,2.62
2019-05-23T14:53:32.960Z,2.85
2019-05-23T14:56:03.168Z,2.50
2019-05-23T14:58:33.013Z,2.50
2019-05-23T15:01:04.703Z,2.45
2019-05-23T15:03:35.983Z,2.58
2019-05-23T15:06:06.168Z,2.30
2019-05-23T15:08:50.450Z,2.92
2019-05-23T15:11:08.393Z,2.65
2019-05-23T15:13:38.192Z,2.80
2019-05-23T15:16:08.721Z,2.25
2019-05-23T15:18:40.147Z,2.58
2019-05-23T15:21:10.039Z,2.27
2019-05-23T15:23:42.160Z,2.40
2019-05-23T15:26:22.227Z,2.52
2019-05-23T15:28:43.451Z,2.72
2019-05-23T15:31:12.997Z,2.70
2019-05-23T15:33:42.661Z,2.85
2019-05-23T15:36:12.187Z,2.47
2019-05-23T15:38:41.720Z,2.85
2019-05-23T15:41:11.620Z,2.85
2019-05-23T15:43:41.319Z,2.77
2019-05-23T15:46:11.151Z,2.20
2019-05-23T15:48:41.235Z,2.08
2019-05-23T15:51:12.839Z,3.10
2019-05-23T15:54:00.305Z,2.72
2019-05-23T15:56:56.296Z,3.40
2019-05-23T15:59:45.704Z,2.65
2019-05-23T16:05:57.629Z,2.60
2019-05-23T16:08:27.618Z,2.40
2019-05-23T16:10:57.603Z,3.00
2019-05-23T16:13:27.020Z,2.90
2019-05-23T16:15:56.535Z,2.52
2019-05-23T16:18:26.105Z,2.50
2019-05-23T16:20:55.751Z,2.83
2019-05-23T16:23:25.164Z,2.50
2019-05-23T16:25:54.919Z,2.70
2019-05-23T16:28:24.633Z,3.10
2019-05-23T16:30:54.989Z,2.70
2019-05-23T16:33:26.719Z,2.37
2019-05-23T16:35:56.326Z,2.75
2019-05-23T16:38:25.873Z,2.40
2019-05-23T16:40:55.644Z,2.75
2019-05-23T16:43:25.427Z,2.55
2019-05-23T16:45:55.096Z,2.05
2019-05-23T16:48:24.747Z,2.47
2019-05-23T16:50:54.812Z,2.50
2019-05-23T16:53:24.819Z,2.75
2019-05-23T16:56:00.913Z,2.40
2019-05-23T16:58:47.878Z,2.92
2019-05-23T17:01:27.461Z,2.67
2019-05-23T17:04:08.890Z,2.50
2019-05-23T17:06:44.689Z,2.45
2019-05-23T17:09:32.238Z,2.47
2019-05-23T17:12:16.526Z,2.70
2019-05-23T17:14:59.789Z,2.65
2019-05-23T17:18:01.626Z,2.50
2019-05-23T17:20:40.483Z,2.50
2019-05-23T17:23:47.662Z,2.73
2019-05-23T17:26:29.888Z,2.80
2019-05-23T17:28:59.993Z,2.53
2019-05-23T17:31:32.999Z,2.80
2019-05-23T17:34:02.622Z,2.30
2019-05-23T17:36:32.258Z,2.63
2019-05-23T17:39:02.159Z,2.50
2019-05-23T17:41:32.080Z,2.30
2019-05-23T17:44:01.747Z,2.07
2019-05-23T17:46:31.629Z,2.50
2019-05-23T17:49:01.341Z,2.80
2019-05-23T17:51:31.188Z,2.73
2019-05-23T17:54:01.480Z,3.03
2019-05-23T17:56:31.348Z,2.80
2019-05-23T17:59:00.861Z,3.53
2019-05-23T18:01:32.274Z,3.20
2019-05-23T18:04:02.114Z,3.53
2019-05-23T18:06:31.745Z,3.63
2019-05-23T18:09:04.798Z,2.80
2019-05-23T18:11:34.998Z,2.87
2019-05-23T18:14:06.007Z,3.07
2019-05-23T18:16:36.440Z,2.87
2019-05-23T18:19:06.407Z,3.30
2019-05-23T18:21:36.602Z,3.37
2019-05-23T18:24:06.392Z,3.10
2019-05-23T18:26:36.841Z,3.10
2019-05-23T18:29:06.912Z,3.47
2019-05-23T18:31:38.615Z,3.40
2019-05-23T18:34:10.994Z,3.50
2019-05-23T18:36:43.711Z,3.37
2019-05-23T18:39:16.905Z,3.27
2019-05-23T18:41:47.048Z,3.10
2019-05-23T18:44:16.716Z,2.67
2019-05-23T18:46:49.488Z,3.10
2019-05-23T18:49:19.930Z,2.90
2019-05-23T18:51:50.248Z,2.93
2019-05-23T18:54:20.251Z,3.40
2019-05-23T18:56:49.952Z,3.20
2019-05-23T18:59:20.612Z,3.00
2019-05-23T19:01:50.325Z,3.20
2019-05-23T19:04:20.207Z,3.47
2019-05-23T19:06:51.585Z,3.07
2019-05-23T19:09:21.787Z,3.20
2019-05-23T19:11:51.671Z,3.20
2019-05-23T19:14:21.539Z,2.90
2019-05-23T19:16:51.232Z,3.10
2019-05-23T19:19:21.366Z,3.63
2019-05-23T19:21:51.270Z,3.80
2019-05-23T19:24:21.299Z,3.03
2019-05-23T19:26:51.570Z,3.40
2019-05-23T19:29:22.330Z,3.73
2019-05-23T19:31:53.057Z,3.27
2019-05-23T19:34:22.660Z,3.20
2019-05-23T19:36:52.925Z,3.50
2019-05-23T19:39:23.927Z,3.40
2019-05-23T19:41:53.851Z,3.33
2019-05-23T19:44:24.744Z,3.30
2019-05-23T19:46:54.545Z,4.17
2019-05-23T19:49:27.132Z,3.00
2019-05-23T19:51:56.867Z,3.60
2019-05-23T19:54:28.195Z,3.80
2019-05-23T19:56:58.510Z,3.57
2019-05-23T19:59:30.110Z,3.57
2019-05-23T20:02:18.956Z,4.20
2019-05-23T20:05:11.860Z,3.80
2019-05-23T20:07:41.877Z,4.10
2019-05-23T20:10:12.918Z,4.37
2019-05-23T20:12:43.579Z,3.70
2019-05-23T20:15:14.928Z,3.57
2019-05-23T20:17:44.858Z,3.60
2019-05-23T20:20:15.035Z,3.43
2019-05-23T20:22:44.878Z,3.70
2019-05-23T20:25:15.285Z,3.90
2019-05-23T20:27:45.530Z,4.10
2019-05-23T20:30:40.813Z,4.10
2019-05-23T20:33:10.510Z,4.67
2019-05-23T20:35:41.786Z,4.37
2019-05-23T20:38:11.941Z,3.97
2019-05-23T20:40:42.032Z,4.17
2019-05-23T20:43:11.677Z,4.17
2019-05-23T20:45:41.860Z,4.00
2019-05-23T20:48:12.073Z,3.97
2019-05-23T20:50:42.406Z,3.70
2019-05-23T20:53:12.423Z,3.90
2019-05-23T20:55:42.759Z,3.90
2019-05-23T20:58:12.750Z,3.90
2019-05-23T21:01:07.683Z,4.60
2019-05-23T21:03:38.344Z,3.80
2019-05-23T21:06:08.512Z,4.20
2019-05-23T21:08:38.653Z,4.30
2019-05-23T21:11:08.380Z,4.77
2019-05-23T21:13:38.979Z,4.80
2019-05-23T21:16:09.034Z,4.13
2019-05-23T21:18:38.932Z,4.00
2019-05-23T21:21:08.496Z,3.93
2019-05-23T21:23:38.822Z,4.67
2019-05-23T21:26:08.659Z,4.33
2019-05-23T21:28:38.717Z,4.23
2019-05-23T21:31:13.751Z,4.43
2019-05-23T21:33:43.961Z,4.07
2019-05-23T21:36:13.520Z,4.10
2019-05-23T21:38:43.696Z,5.07
2019-05-23T21:41:13.869Z,4.50
2019-05-23T21:43:44.983Z,4.03
2019-05-23T21:46:14.483Z,4.10
2019-05-23T21:48:44.237Z,4.63
2019-05-23T21:51:13.892Z,4.50
2019-05-23T21:53:43.761Z,4.07
2019-05-23T21:56:13.486Z,4.47
2019-05-23T21:58:43.320Z,4.70
2019-05-23T22:01:37.388Z,4.23
2019-05-23T22:04:29.603Z,4.40
2019-05-23T22:07:01.588Z,4.23
2019-05-23T22:09:31.652Z,4.50
2019-05-23T22:12:02.206Z,4.70
2019-05-23T22:14:32.103Z,4.90
2019-05-23T22:17:02.255Z,4.13
2019-05-23T22:19:33.661Z,4.63
2019-05-23T22:22:07.318Z,4.17
2019-05-23T22:24:38.520Z,4.77
2019-05-23T22:27:10.229Z,4.23
2019-05-23T22:29:47.164Z,4.47
2019-05-23T22:32:18.859Z,4.20
2019-05-23T22:34:53.997Z,4.37
2019-05-23T22:37:25.619Z,4.87
2019-05-23T22:39:55.236Z,4.10
2019-05-23T22:42:27.463Z,4.73
2019-05-23T22:44:58.324Z,4.60
2019-05-23T22:47:28.538Z,4.50
2019-05-23T22:49:58.093Z,4.23
2019-05-23T22:52:28.145Z,4.50
2019-05-23T22:54:57.606Z,4.17
2019-05-23T22:57:27.033Z,4.67
2019-05-23T22:59:56.522Z,5.10
2019-05-23T23:02:26.291Z,5.30
2019-05-23T23:04:55.793Z,5.23
2019-05-23T23:07:25.243Z,4.17
2019-05-23T23:09:54.769Z,4.40
2019-05-23T23:12:24.910Z,4.17
2019-05-23T23:14:54.719Z,4.20
2019-05-23T23:17:24.854Z,4.50
2019-05-23T23:19:55.561Z,4.03
2019-05-23T23:22:25.213Z,4.90
2019-05-23T23:24:54.950Z,4.80
2019-05-23T23:27:24.333Z,4.80
2019-05-23T23:29:53.892Z,4.97
2019-05-23T23:32:23.621Z,4.67
2019-05-23T23:34:53.268Z,4.53
2019-05-23T23:37:22.625Z,4.53
2019-05-23T23:39:52.420Z,5.00
2019-05-23T23:42:21.969Z,4.90
2019-05-23T23:44:50.672Z,4.97
2019-05-23T23:47:37.852Z,4.40
2019-05-23T23:50:25.369Z,4.57
2019-05-23T23:53:12.854Z,4.77
2019-05-23T23:56:00.752Z,4.57
2019-05-23T23:58:29.358Z,4.70
